sensor_id;sensor_type;location;lat;lon;timestamp;pressure;altitude;pressure_sealevel;temperature;humidity
77013;BME280;67260;53.130;17.982;2023-07-29T00:00:11;100458.23;;;15.42;84.70
77013;BME280;67260;53.130;17.982;2023-07-29T00:03:01;100462.30;;;15.35;84.74
77013;BME280;67260;53.130;17.982;2023-07-29T00:05:28;100460.01;;;15.32;84.92
77013;BME280;67260;53.130;17.982;2023-07-29T00:07:55;100464.36;;;15.30;84.90
77013;BME280;67260;53.130;17.982;2023-07-29T00:10:25;100466.54;;;15.29;84.69
77013;BME280;67260;53.130;17.982;2023-07-29T00:12:53;100464.00;;;15.24;84.94
77013;BME280;67260;53.130;17.982;2023-07-29T00:15:19;100463.27;;;15.22;85.07
77013;BME280;67260;53.130;17.982;2023-07-29T00:17:49;100468.17;;;15.17;85.07
77013;BME280;67260;53.130;17.982;2023-07-29T00:20:16;100467.86;;;15.14;85.03
77013;BME280;67260;53.130;17.982;2023-07-29T00:22:43;100462.48;;;15.13;85.14
77013;BME280;67260;53.130;17.982;2023-07-29T00:25:10;100466.20;;;15.11;85.04
77013;BME280;67260;53.130;17.982;2023-07-29T00:27:42;100466.19;;;15.08;85.21
77013;BME280;67260;53.130;17.982;2023-07-29T00:30:12;100469.43;;;15.10;85.42
77013;BME280;67260;53.130;17.982;2023-07-29T00:32:43;100465.23;;;15.13;85.57
77013;BME280;67260;53.130;17.982;2023-07-29T00:35:13;100465.42;;;15.17;85.39
77013;BME280;67260;53.130;17.982;2023-07-29T00:37:40;100469.86;;;15.19;85.32
77013;BME280;67260;53.130;17.982;2023-07-29T00:40:14;100467.41;;;15.20;85.15
77013;BME280;67260;53.130;17.982;2023-07-29T00:42:45;100466.55;;;15.22;85.22
77013;BME280;67260;53.130;17.982;2023-07-29T00:45:15;100466.08;;;15.24;85.18
77013;BME280;67260;53.130;17.982;2023-07-29T00:47:45;100468.38;;;15.23;85.07
77013;BME280;67260;53.130;17.982;2023-07-29T00:50:17;100470.91;;;15.20;84.83
77013;BME280;67260;53.130;17.982;2023-07-29T00:52:44;100472.59;;;15.16;84.72
77013;BME280;67260;53.130;17.982;2023-07-29T00:55:11;100474.66;;;15.12;84.70
77013;BME280;67260;53.130;17.982;2023-07-29T00:57:39;100480.05;;;15.04;84.62
77013;BME280;67260;53.130;17.982;2023-07-29T01:00:07;100478.39;;;14.98;84.95
77013;BME280;67260;53.130;17.982;2023-07-29T01:02:36;100481.73;;;14.92;84.80
77013;BME280;67260;53.130;17.982;2023-07-29T01:05:03;100480.40;;;14.88;85.19
77013;BME280;67260;53.130;17.982;2023-07-29T01:10:40;100477.54;;;14.83;85.21
77013;BME280;67260;53.130;17.982;2023-07-29T01:13:20;100472.91;;;14.79;85.15
77013;BME280;67260;53.130;17.982;2023-07-29T01:15:59;100473.63;;;14.74;85.20
77013;BME280;67260;53.130;17.982;2023-07-29T01:18:32;100471.36;;;14.70;85.18
77013;BME280;67260;53.130;17.982;2023-07-29T01:21:15;100466.38;;;14.69;85.10
77013;BME280;67260;53.130;17.982;2023-07-29T01:23:45;100465.25;;;14.69;85.32
77013;BME280;67260;53.130;17.982;2023-07-29T01:26:12;100463.33;;;14.69;85.18
77013;BME280;67260;53.130;17.982;2023-07-29T01:28:41;100464.07;;;14.69;85.20
77013;BME280;67260;53.130;17.982;2023-07-29T01:31:18;100458.57;;;14.66;85.01
77013;BME280;67260;53.130;17.982;2023-07-29T01:34:13;100457.34;;;14.63;85.02
77013;BME280;67260;53.130;17.982;2023-07-29T01:36:48;100458.08;;;14.56;84.85
77013;BME280;67260;53.130;17.982;2023-07-29T01:39:20;100456.49;;;14.51;85.22
77013;BME280;67260;53.130;17.982;2023-07-29T01:42:06;100453.25;;;14.52;85.35
77013;BME280;67260;53.130;17.982;2023-07-29T01:44:43;100452.29;;;14.54;85.45
77013;BME280;67260;53.130;17.982;2023-07-29T01:47:11;100456.52;;;14.55;85.22
77013;BME280;67260;53.130;17.982;2023-07-29T01:49:38;100457.91;;;14.53;85.16
77013;BME280;67260;53.130;17.982;2023-07-29T01:52:05;100455.86;;;14.51;85.17
77013;BME280;67260;53.130;17.982;2023-07-29T01:54:32;100457.34;;;14.47;84.87
77013;BME280;67260;53.130;17.982;2023-07-29T01:57:06;100459.17;;;14.39;84.92
77013;BME280;67260;53.130;17.982;2023-07-29T01:59:32;100465.89;;;14.32;85.10
77013;BME280;67260;53.130;17.982;2023-07-29T02:01:59;100468.66;;;14.29;85.00
77013;BME280;67260;53.130;17.982;2023-07-29T02:04:26;100469.85;;;14.27;85.03
77013;BME280;67260;53.130;17.982;2023-07-29T02:06:54;100473.13;;;14.26;85.30
77013;BME280;67260;53.130;17.982;2023-07-29T02:09:21;100481.41;;;14.23;85.12
77013;BME280;67260;53.130;17.982;2023-07-29T02:11:48;100484.25;;;14.21;85.13
77013;BME280;67260;53.130;17.982;2023-07-29T02:14:18;100480.59;;;14.17;85.31
77013;BME280;67260;53.130;17.982;2023-07-29T02:16:45;100477.71;;;14.17;85.08
77013;BME280;67260;53.130;17.982;2023-07-29T02:19:13;100474.23;;;14.12;85.13
77013;BME280;67260;53.130;17.982;2023-07-29T02:21:40;100476.63;;;14.06;85.14
77013;BME280;67260;53.130;17.982;2023-07-29T02:24:08;100480.34;;;14.02;85.30
77013;BME280;67260;53.130;17.982;2023-07-29T02:26:37;100481.96;;;14.01;85.18
77013;BME280;67260;53.130;17.982;2023-07-29T02:29:04;100484.94;;;14.00;85.32
77013;BME280;67260;53.130;17.982;2023-07-29T02:31:31;100484.75;;;13.99;85.33
77013;BME280;67260;53.130;17.982;2023-07-29T02:34:00;100483.83;;;13.98;85.26
77013;BME280;67260;53.130;17.982;2023-07-29T02:36:27;100486.71;;;13.95;85.22
77013;BME280;67260;53.130;17.982;2023-07-29T02:39:01;100484.04;;;13.93;85.13
77013;BME280;67260;53.130;17.982;2023-07-29T02:41:29;100480.09;;;13.91;85.07
77013;BME280;67260;53.130;17.982;2023-07-29T02:43:58;100484.30;;;13.88;84.97
77013;BME280;67260;53.130;17.982;2023-07-29T02:46:25;100485.80;;;13.83;84.93
77013;BME280;67260;53.130;17.982;2023-07-29T02:48:52;100489.80;;;13.78;84.95
77013;BME280;67260;53.130;17.982;2023-07-29T02:51:19;100494.85;;;13.75;84.99
77013;BME280;67260;53.130;17.982;2023-07-29T02:53:47;100493.36;;;13.75;85.21
77013;BME280;67260;53.130;17.982;2023-07-29T02:56:14;100495.66;;;13.73;84.74
77013;BME280;67260;53.130;17.982;2023-07-29T02:58:41;100500.03;;;13.70;84.79
77013;BME280;67260;53.130;17.982;2023-07-29T03:01:08;100504.07;;;13.64;84.80
77013;BME280;67260;53.130;17.982;2023-07-29T03:03:36;100506.36;;;13.62;85.09
77013;BME280;67260;53.130;17.982;2023-07-29T03:06:09;100505.35;;;13.62;85.06
77013;BME280;67260;53.130;17.982;2023-07-29T03:08:36;100506.20;;;13.65;84.81
77013;BME280;67260;53.130;17.982;2023-07-29T03:11:08;100511.29;;;13.63;84.51
77013;BME280;67260;53.130;17.982;2023-07-29T03:13:42;100508.75;;;13.57;84.61
77013;BME280;67260;53.130;17.982;2023-07-29T03:16:17;100512.86;;;13.55;84.84
77013;BME280;67260;53.130;17.982;2023-07-29T03:18:49;100513.46;;;13.58;85.03
77013;BME280;67260;53.130;17.982;2023-07-29T03:21:19;100510.71;;;13.61;84.85
77013;BME280;67260;53.130;17.982;2023-07-29T03:23:45;100509.66;;;13.62;84.79
77013;BME280;67260;53.130;17.982;2023-07-29T03:26:12;100508.75;;;13.59;84.64
77013;BME280;67260;53.130;17.982;2023-07-29T03:28:41;100507.60;;;13.60;84.67
77013;BME280;67260;53.130;17.982;2023-07-29T03:31:12;100505.31;;;13.66;84.77
77013;BME280;67260;53.130;17.982;2023-07-29T03:33:41;100505.62;;;13.74;84.49
77013;BME280;67260;53.130;17.982;2023-07-29T03:36:07;100503.48;;;13.77;84.20
77013;BME280;67260;53.130;17.982;2023-07-29T03:38:34;100501.22;;;13.75;84.27
77013;BME280;67260;53.130;17.982;2023-07-29T03:41:07;100500.52;;;13.73;84.50
77013;BME280;67260;53.130;17.982;2023-07-29T03:43:35;100503.77;;;13.72;84.50
77013;BME280;67260;53.130;17.982;2023-07-29T03:46:02;100503.52;;;13.78;84.85
77013;BME280;67260;53.130;17.982;2023-07-29T03:48:37;100505.89;;;13.91;84.75
77013;BME280;67260;53.130;17.982;2023-07-29T03:51:04;100506.72;;;14.07;84.58
77013;BME280;67260;53.130;17.982;2023-07-29T03:53:31;100506.81;;;14.21;84.03
77013;BME280;67260;53.130;17.982;2023-07-29T03:56:04;100508.77;;;14.30;83.42
77013;BME280;67260;53.130;17.982;2023-07-29T03:58:31;100506.23;;;14.35;83.45
77013;BME280;67260;53.130;17.982;2023-07-29T04:00:58;100509.02;;;14.50;83.44
77013;BME280;67260;53.130;17.982;2023-07-29T04:03:26;100512.92;;;14.70;83.20
77013;BME280;67260;53.130;17.982;2023-07-29T04:05:54;100519.75;;;14.87;82.47
77013;BME280;67260;53.130;17.982;2023-07-29T04:08:21;100522.38;;;15.05;82.33
77013;BME280;67260;53.130;17.982;2023-07-29T04:10:48;100521.63;;;15.26;81.73
77013;BME280;67260;53.130;17.982;2023-07-29T04:13:16;100526.48;;;15.41;81.30
77013;BME280;67260;53.130;17.982;2023-07-29T04:15:43;100529.67;;;15.63;81.38
77013;BME280;67260;53.130;17.982;2023-07-29T04:18:10;100530.82;;;15.87;80.92
77013;BME280;67260;53.130;17.982;2023-07-29T04:20:37;100531.91;;;16.03;80.54
77013;BME280;67260;53.130;17.982;2023-07-29T04:23:03;100531.06;;;16.12;80.29
77013;BME280;67260;53.130;17.982;2023-07-29T04:25:30;100533.66;;;16.21;80.03
77013;BME280;67260;53.130;17.982;2023-07-29T04:27:57;100536.88;;;16.37;79.42
77013;BME280;67260;53.130;17.982;2023-07-29T04:30:24;100532.56;;;16.59;79.52
77013;BME280;67260;53.130;17.982;2023-07-29T04:32:51;100531.50;;;16.87;78.77
77013;BME280;67260;53.130;17.982;2023-07-29T04:35:18;100532.55;;;17.18;78.02
77013;BME280;67260;53.130;17.982;2023-07-29T04:37:45;100538.08;;;17.55;77.38
77013;BME280;67260;53.130;17.982;2023-07-29T04:40:14;100543.60;;;17.93;76.92
77013;BME280;67260;53.130;17.982;2023-07-29T04:42:42;100543.23;;;18.34;76.59
77013;BME280;67260;53.130;17.982;2023-07-29T04:45:10;100536.83;;;18.67;75.63
77013;BME280;67260;53.130;17.982;2023-07-29T04:47:37;100538.40;;;19.05;74.82
77013;BME280;67260;53.130;17.982;2023-07-29T04:50:04;100540.42;;;19.56;73.72
77013;BME280;67260;53.130;17.982;2023-07-29T04:52:34;100543.42;;;20.21;72.63
77013;BME280;67260;53.130;17.982;2023-07-29T04:55:01;100546.34;;;20.70;71.27
77013;BME280;67260;53.130;17.982;2023-07-29T04:57:28;100544.22;;;21.13;69.91
77013;BME280;67260;53.130;17.982;2023-07-29T05:00:01;100546.89;;;21.67;69.31
77013;BME280;67260;53.130;17.982;2023-07-29T05:02:29;100545.16;;;22.16;67.88
77013;BME280;67260;53.130;17.982;2023-07-29T05:04:56;100553.75;;;22.58;67.45
77013;BME280;67260;53.130;17.982;2023-07-29T05:07:23;100554.36;;;23.11;65.90
77013;BME280;67260;53.130;17.982;2023-07-29T05:09:51;100551.79;;;23.52;64.57
77013;BME280;67260;53.130;17.982;2023-07-29T05:12:17;100547.05;;;23.69;64.17
77013;BME280;67260;53.130;17.982;2023-07-29T05:15:10;100548.48;;;24.00;63.94
77013;BME280;67260;53.130;17.982;2023-07-29T05:17:37;100543.88;;;24.50;62.17
77013;BME280;67260;53.130;17.982;2023-07-29T05:20:05;100545.52;;;24.96;60.76
77013;BME280;67260;53.130;17.982;2023-07-29T05:22:43;100543.13;;;25.31;59.44
77013;BME280;67260;53.130;17.982;2023-07-29T05:25:14;100540.77;;;25.52;58.98
77013;BME280;67260;53.130;17.982;2023-07-29T05:27:41;100544.38;;;25.75;58.05
77013;BME280;67260;53.130;17.982;2023-07-29T05:30:19;100542.20;;;26.14;57.16
77013;BME280;67260;53.130;17.982;2023-07-29T05:32:47;100540.59;;;26.58;56.92
77013;BME280;67260;53.130;17.982;2023-07-29T05:35:13;100539.96;;;26.91;55.57
77013;BME280;67260;53.130;17.982;2023-07-29T05:37:41;100536.90;;;27.09;54.69
77013;BME280;67260;53.130;17.982;2023-07-29T05:40:09;100541.00;;;27.31;54.05
77013;BME280;67260;53.130;17.982;2023-07-29T05:42:37;100539.27;;;27.81;53.99
77013;BME280;67260;53.130;17.982;2023-07-29T05:45:05;100537.28;;;28.24;52.52
77013;BME280;67260;53.130;17.982;2023-07-29T05:47:33;100538.76;;;28.69;52.22
77013;BME280;67260;53.130;17.982;2023-07-29T05:50:01;100538.74;;;29.30;51.53
77013;BME280;67260;53.130;17.982;2023-07-29T05:52:31;100535.93;;;30.00;50.34
77013;BME280;67260;53.130;17.982;2023-07-29T05:54:58;100537.44;;;30.52;49.04
77013;BME280;67260;53.130;17.982;2023-07-29T05:57:27;100537.96;;;30.85;47.37
77013;BME280;67260;53.130;17.982;2023-07-29T05:59:59;100538.69;;;31.13;46.85
77013;BME280;67260;53.130;17.982;2023-07-29T06:02:27;100534.57;;;31.46;45.41
77013;BME280;67260;53.130;17.982;2023-07-29T06:04:56;100538.33;;;31.81;45.24
77013;BME280;67260;53.130;17.982;2023-07-29T06:07:22;100536.10;;;32.25;43.39
77013;BME280;67260;53.130;17.982;2023-07-29T06:09:50;100539.86;;;32.41;42.78
77013;BME280;67260;53.130;17.982;2023-07-29T06:12:17;100540.38;;;32.54;42.04
77013;BME280;67260;53.130;17.982;2023-07-29T06:14:44;100537.61;;;32.85;41.62
77013;BME280;67260;53.130;17.982;2023-07-29T06:17:11;100536.95;;;33.26;40.68
77013;BME280;67260;53.130;17.982;2023-07-29T06:19:38;100539.12;;;33.76;39.77
77013;BME280;67260;53.130;17.982;2023-07-29T06:22:05;100537.92;;;34.13;38.48
77013;BME280;67260;53.130;17.982;2023-07-29T06:24:35;100531.29;;;34.37;37.96
77013;BME280;67260;53.130;17.982;2023-07-29T06:27:02;100530.29;;;34.56;36.56
77013;BME280;67260;53.130;17.982;2023-07-29T06:29:29;100530.08;;;33.74;33.18
77013;BME280;67260;53.130;17.982;2023-07-29T06:31:58;100532.01;;;32.91;36.12
77013;BME280;67260;53.130;17.982;2023-07-29T06:34:36;100530.70;;;33.33;36.36
77013;BME280;67260;53.130;17.982;2023-07-29T06:37:03;100531.66;;;33.56;35.76
77013;BME280;67260;53.130;17.982;2023-07-29T06:39:31;100531.41;;;33.72;34.34
77013;BME280;67260;53.130;17.982;2023-07-29T06:41:59;100532.45;;;33.18;33.24
77013;BME280;67260;53.130;17.982;2023-07-29T06:44:26;100529.27;;;32.19;33.66
77013;BME280;67260;53.130;17.982;2023-07-29T06:46:53;100532.88;;;31.56;35.71
77013;BME280;67260;53.130;17.982;2023-07-29T06:49:19;100539.24;;;31.19;36.66
77013;BME280;67260;53.130;17.982;2023-07-29T06:51:46;100540.95;;;31.50;36.32
77013;BME280;67260;53.130;17.982;2023-07-29T06:54:13;100545.91;;;31.56;36.18
77013;BME280;67260;53.130;17.982;2023-07-29T06:56:41;100546.20;;;31.98;35.94
77013;BME280;67260;53.130;17.982;2023-07-29T06:59:09;100536.80;;;32.35;36.02
77013;BME280;67260;53.130;17.982;2023-07-29T07:01:38;100536.24;;;33.23;35.37
77013;BME280;67260;53.130;17.982;2023-07-29T07:04:19;100530.23;;;34.19;33.27
77013;BME280;67260;53.130;17.982;2023-07-29T07:06:47;100521.55;;;34.39;32.55
77013;BME280;67260;53.130;17.982;2023-07-29T07:09:20;100516.66;;;34.18;31.86
77013;BME280;67260;53.130;17.982;2023-07-29T07:11:47;100522.03;;;33.94;31.46
77013;BME280;67260;53.130;17.982;2023-07-29T07:14:17;100519.07;;;33.82;32.39
77013;BME280;67260;53.130;17.982;2023-07-29T07:16:44;100516.27;;;34.34;32.44
77013;BME280;67260;53.130;17.982;2023-07-29T07:19:11;100516.97;;;34.62;31.14
77013;BME280;67260;53.130;17.982;2023-07-29T07:21:43;100520.42;;;35.04;31.50
77013;BME280;67260;53.130;17.982;2023-07-29T07:24:13;100521.04;;;35.39;30.29
77013;BME280;67260;53.130;17.982;2023-07-29T07:26:41;100520.23;;;35.44;29.86
77013;BME280;67260;53.130;17.982;2023-07-29T07:29:15;100516.83;;;35.52;30.10
77013;BME280;67260;53.130;17.982;2023-07-29T07:31:53;100521.02;;;35.77;29.97
77013;BME280;67260;53.130;17.982;2023-07-29T07:34:21;100514.40;;;36.48;29.75
77013;BME280;67260;53.130;17.982;2023-07-29T07:36:49;100514.43;;;37.06;28.28
77013;BME280;67260;53.130;17.982;2023-07-29T07:39:17;100511.35;;;37.11;26.87
77013;BME280;67260;53.130;17.982;2023-07-29T07:41:44;100508.80;;;37.04;27.66
77013;BME280;67260;53.130;17.982;2023-07-29T07:44:13;100507.12;;;36.96;27.41
77013;BME280;67260;53.130;17.982;2023-07-29T07:50:16;100508.17;;;37.45;27.63
77013;BME280;67260;53.130;17.982;2023-07-29T07:52:58;100500.88;;;37.36;25.81
77013;BME280;67260;53.130;17.982;2023-07-29T07:55:26;100499.80;;;36.90;26.64
77013;BME280;67260;53.130;17.982;2023-07-29T07:57:53;100494.02;;;36.48;27.11
77013;BME280;67260;53.130;17.982;2023-07-29T08:00:23;100496.63;;;36.51;27.78
77013;BME280;67260;53.130;17.982;2023-07-29T08:02:58;100492.33;;;36.98;27.51
77013;BME280;67260;53.130;17.982;2023-07-29T08:05:25;100492.32;;;37.23;26.94
77013;BME280;67260;53.130;17.982;2023-07-29T08:07:53;100491.40;;;37.64;26.01
77013;BME280;67260;53.130;17.982;2023-07-29T08:10:30;100489.91;;;37.74;26.01
77013;BME280;67260;53.130;17.982;2023-07-29T08:13:00;100489.07;;;38.19;25.98
77013;BME280;67260;53.130;17.982;2023-07-29T08:15:28;100484.48;;;38.84;25.15
77013;BME280;67260;53.130;17.982;2023-07-29T08:21:26;100480.11;;;39.28;23.84
77013;BME280;67260;53.130;17.982;2023-07-29T08:23:54;100476.44;;;38.73;24.13
77013;BME280;67260;53.130;17.982;2023-07-29T08:26:25;100478.17;;;39.08;23.59
77013;BME280;67260;53.130;17.982;2023-07-29T08:29:11;100474.30;;;39.06;23.88
77013;BME280;67260;53.130;17.982;2023-07-29T08:31:40;100470.10;;;39.49;23.53
77013;BME280;67260;53.130;17.982;2023-07-29T08:34:10;100474.42;;;39.99;23.02
77013;BME280;67260;53.130;17.982;2023-07-29T08:39:53;100463.56;;;40.05;22.54
77013;BME280;67260;53.130;17.982;2023-07-29T08:42:23;100460.18;;;40.30;22.12
77013;BME280;67260;53.130;17.982;2023-07-29T08:44:54;100458.73;;;40.33;22.06
77013;BME280;67260;53.130;17.982;2023-07-29T08:47:28;100454.28;;;40.31;21.34
77013;BME280;67260;53.130;17.982;2023-07-29T08:49:59;100458.12;;;39.46;21.85
77013;BME280;67260;53.130;17.982;2023-07-29T08:52:29;100455.11;;;38.69;22.63
77013;BME280;67260;53.130;17.982;2023-07-29T08:54:56;100451.54;;;37.95;23.41
77013;BME280;67260;53.130;17.982;2023-07-29T08:57:23;100449.86;;;37.97;23.96
77013;BME280;67260;53.130;17.982;2023-07-29T08:59:51;100448.55;;;38.44;23.85
77013;BME280;67260;53.130;17.982;2023-07-29T09:02:18;100451.94;;;37.94;23.92
77013;BME280;67260;53.130;17.982;2023-07-29T09:04:44;100442.11;;;37.88;24.17
77013;BME280;67260;53.130;17.982;2023-07-29T09:07:12;100436.46;;;37.00;24.98
77013;BME280;67260;53.130;17.982;2023-07-29T09:09:39;100445.77;;;37.51;24.69
77013;BME280;67260;53.130;17.982;2023-07-29T09:12:06;100441.80;;;37.87;23.38
77013;BME280;67260;53.130;17.982;2023-07-29T09:14:44;100440.70;;;37.77;24.16
77013;BME280;67260;53.130;17.982;2023-07-29T09:17:14;100438.00;;;38.27;23.61
77013;BME280;67260;53.130;17.982;2023-07-29T09:19:53;100442.09;;;38.36;23.85
77013;BME280;67260;53.130;17.982;2023-07-29T09:22:27;100441.58;;;38.77;23.04
77013;BME280;67260;53.130;17.982;2023-07-29T09:24:56;100439.65;;;38.96;23.05
77013;BME280;67260;53.130;17.982;2023-07-29T09:27:25;100435.41;;;38.90;23.09
77013;BME280;67260;53.130;17.982;2023-07-29T09:29:54;100437.30;;;39.14;23.37
77013;BME280;67260;53.130;17.982;2023-07-29T09:32:28;100433.39;;;37.72;24.15
77013;BME280;67260;53.130;17.982;2023-07-29T09:35:01;100434.48;;;36.08;25.43
77013;BME280;67260;53.130;17.982;2023-07-29T09:37:29;100433.30;;;34.97;26.95
77013;BME280;67260;53.130;17.982;2023-07-29T09:40:02;100429.31;;;33.93;28.08
77013;BME280;67260;53.130;17.982;2023-07-29T09:42:34;100427.55;;;35.05;27.71
77013;BME280;67260;53.130;17.982;2023-07-29T09:45:10;100421.75;;;36.55;26.62
77013;BME280;67260;53.130;17.982;2023-07-29T09:47:56;100429.86;;;37.59;24.23
77013;BME280;67260;53.130;17.982;2023-07-29T09:54:02;100418.29;;;38.16;24.29
77013;BME280;67260;53.130;17.982;2023-07-29T09:57:07;100421.23;;;38.10;23.75
77013;BME280;67260;53.130;17.982;2023-07-29T10:03:55;100408.66;;;37.92;23.70
77013;BME280;67260;53.130;17.982;2023-07-29T10:10:02;100401.02;;;38.47;23.03
77013;BME280;67260;53.130;17.982;2023-07-29T10:13:01;100398.90;;;37.97;22.67
77013;BME280;67260;53.130;17.982;2023-07-29T10:15:40;100399.86;;;36.88;23.48
77013;BME280;67260;53.130;17.982;2023-07-29T10:18:10;100402.58;;;36.24;24.45
77013;BME280;67260;53.130;17.982;2023-07-29T10:20:37;100397.85;;;35.95;25.36
77013;BME280;67260;53.130;17.982;2023-07-29T10:23:07;100399.02;;;36.09;25.64
77013;BME280;67260;53.130;17.982;2023-07-29T10:25:47;100396.65;;;36.08;25.38
77013;BME280;67260;53.130;17.982;2023-07-29T10:28:17;100403.00;;;35.45;26.14
77013;BME280;67260;53.130;17.982;2023-07-29T10:30:47;100393.16;;;35.49;26.07
77013;BME280;67260;53.130;17.982;2023-07-29T10:33:27;100391.38;;;35.53;26.20
77013;BME280;67260;53.130;17.982;2023-07-29T10:36:01;100391.54;;;34.70;27.33
77013;BME280;67260;53.130;17.982;2023-07-29T10:39:07;100389.81;;;33.89;27.99
77013;BME280;67260;53.130;17.982;2023-07-29T10:42:06;100390.22;;;33.75;28.48
77013;BME280;67260;53.130;17.982;2023-07-29T10:45:21;100385.56;;;33.85;28.74
77013;BME280;67260;53.130;17.982;2023-07-29T10:47:54;100385.54;;;33.06;29.36
77013;BME280;67260;53.130;17.982;2023-07-29T10:50:27;100379.82;;;32.89;29.72
77013;BME280;67260;53.130;17.982;2023-07-29T10:53:05;100374.09;;;32.85;29.83
77013;BME280;67260;53.130;17.982;2023-07-29T10:55:34;100368.66;;;33.31;29.93
77013;BME280;67260;53.130;17.982;2023-07-29T10:58:29;100360.23;;;34.09;29.10
77013;BME280;67260;53.130;17.982;2023-07-29T11:00:59;100359.95;;;34.07;28.17
77013;BME280;67260;53.130;17.982;2023-07-29T11:03:28;100356.79;;;33.87;28.67
77013;BME280;67260;53.130;17.982;2023-07-29T11:06:04;100352.15;;;33.82;28.59
77013;BME280;67260;53.130;17.982;2023-07-29T11:08:47;100347.17;;;33.61;29.25
77013;BME280;67260;53.130;17.982;2023-07-29T11:11:33;100347.70;;;33.39;29.49
77013;BME280;67260;53.130;17.982;2023-07-29T11:14:05;100347.27;;;32.95;29.82
77013;BME280;67260;53.130;17.982;2023-07-29T11:16:34;100340.11;;;32.65;30.58
77013;BME280;67260;53.130;17.982;2023-07-29T11:19:10;100340.02;;;32.84;30.67
77013;BME280;67260;53.130;17.982;2023-07-29T11:21:42;100335.23;;;33.06;30.63
77013;BME280;67260;53.130;17.982;2023-07-29T11:24:09;100328.70;;;33.17;30.45
77013;BME280;67260;53.130;17.982;2023-07-29T11:26:40;100329.70;;;32.91;30.83
77013;BME280;67260;53.130;17.982;2023-07-29T11:29:13;100329.47;;;32.55;30.81
77013;BME280;67260;53.130;17.982;2023-07-29T11:31:40;100327.87;;;32.25;31.16
77013;BME280;67260;53.130;17.982;2023-07-29T11:34:07;100322.45;;;32.06;31.75
77013;BME280;67260;53.130;17.982;2023-07-29T11:36:34;100318.42;;;32.05;32.32
77013;BME280;67260;53.130;17.982;2023-07-29T11:39:09;100313.48;;;32.17;32.41
77013;BME280;67260;53.130;17.982;2023-07-29T11:41:37;100310.94;;;31.89;32.43
77013;BME280;67260;53.130;17.982;2023-07-29T11:44:09;100306.02;;;31.10;33.42
77013;BME280;67260;53.130;17.982;2023-07-29T11:46:37;100306.27;;;30.81;34.24
77013;BME280;67260;53.130;17.982;2023-07-29T11:49:04;100311.84;;;31.00;34.22
77013;BME280;67260;53.130;17.982;2023-07-29T11:51:32;100307.69;;;30.91;34.40
77013;BME280;67260;53.130;17.982;2023-07-29T11:53:59;100299.05;;;31.00;34.23
77013;BME280;67260;53.130;17.982;2023-07-29T11:56:30;100297.65;;;30.94;34.30
77013;BME280;67260;53.130;17.982;2023-07-29T11:58:57;100296.34;;;30.86;34.59
77013;BME280;67260;53.130;17.982;2023-07-29T12:01:24;100291.61;;;30.82;34.68
77013;BME280;67260;53.130;17.982;2023-07-29T12:03:51;100290.41;;;30.87;34.89
77013;BME280;67260;53.130;17.982;2023-07-29T12:06:18;100285.58;;;30.61;35.19
77013;BME280;67260;53.130;17.982;2023-07-29T12:08:44;100286.48;;;30.31;35.74
77013;BME280;67260;53.130;17.982;2023-07-29T12:11:15;100282.85;;;30.12;35.88
77013;BME280;67260;53.130;17.982;2023-07-29T12:13:42;100275.47;;;30.18;35.87
77013;BME280;67260;53.130;17.982;2023-07-29T12:16:09;100272.64;;;30.17;35.76
77013;BME280;67260;53.130;17.982;2023-07-29T12:18:36;100265.92;;;29.98;36.13
77013;BME280;67260;53.130;17.982;2023-07-29T12:21:06;100263.05;;;29.73;36.78
77013;BME280;67260;53.130;17.982;2023-07-29T12:23:33;100259.98;;;29.64;37.08
77013;BME280;67260;53.130;17.982;2023-07-29T12:26:00;100259.34;;;29.80;36.69
77013;BME280;67260;53.130;17.982;2023-07-29T12:28:30;100261.88;;;29.72;36.79
77013;BME280;67260;53.130;17.982;2023-07-29T12:30:59;100253.27;;;29.27;37.29
77013;BME280;67260;53.130;17.982;2023-07-29T12:33:34;100248.67;;;28.95;37.90
77013;BME280;67260;53.130;17.982;2023-07-29T12:36:02;100239.60;;;28.81;38.39
77013;BME280;67260;53.130;17.982;2023-07-29T12:38:29;100236.23;;;28.92;38.32
77013;BME280;67260;53.130;17.982;2023-07-29T12:40:56;100235.35;;;28.98;38.67
77013;BME280;67260;53.130;17.982;2023-07-29T12:43:24;100233.09;;;29.04;38.61
77013;BME280;67260;53.130;17.982;2023-07-29T12:45:52;100230.85;;;28.97;38.48
77013;BME280;67260;53.130;17.982;2023-07-29T12:48:18;100225.66;;;28.93;38.52
77013;BME280;67260;53.130;17.982;2023-07-29T12:50:46;100226.64;;;28.95;38.51
77013;BME280;67260;53.130;17.982;2023-07-29T12:53:13;100225.95;;;28.98;38.84
77013;BME280;67260;53.130;17.982;2023-07-29T12:55:40;100219.75;;;29.12;38.73
77013;BME280;67260;53.130;17.982;2023-07-29T12:58:06;100215.90;;;29.22;38.71
77013;BME280;67260;53.130;17.982;2023-07-29T13:00:33;100214.94;;;29.31;38.34
77013;BME280;67260;53.130;17.982;2023-07-29T13:03:00;100216.83;;;29.24;38.35
77013;BME280;67260;53.130;17.982;2023-07-29T13:05:26;100208.66;;;29.20;38.60
77013;BME280;67260;53.130;17.982;2023-07-29T13:07:53;100200.66;;;29.17;38.44
77013;BME280;67260;53.130;17.982;2023-07-29T13:10:20;100200.73;;;29.17;38.35
77013;BME280;67260;53.130;17.982;2023-07-29T13:12:46;100201.53;;;28.96;38.47
77013;BME280;67260;53.130;17.982;2023-07-29T13:15:13;100200.06;;;28.90;38.93
77013;BME280;67260;53.130;17.982;2023-07-29T13:17:40;100198.85;;;28.86;38.83
77013;BME280;67260;53.130;17.982;2023-07-29T13:20:10;100189.11;;;28.79;39.15